Glenham, South Dakota
Current Conditions -  °F | °C
As of 9:52 AM on Wednesday 22 Oct 2014 (Local Time) from KMBG Reporting Station
Light Rain Light Rain  
Wind Chill: 56°   Ceiling: 9500
Heat Index: 56°   Visibility: 10mi
Dew Point: 50°   Wind: 13mph
Humidity: 80%   Direction: 300°WNW
Pressure: 29.86"   Gusts: NA
Location:  45.53°N, 100.27°W
Report Text: KMBG 221452Z AUTO 30011KT 10SM -RA OVC095 13/10 A2986 RMK AO2 RAB1359 SLP107 P0001 60001 T01330100 53024
Loading
Personal Weather Stations






























Interactive Weather Map
Tropical Storm Tracking
New forecast layout! Learn more

10-Day Weather Forecast

Advertisements
Track Severe Weather on mobile